createdAt,value
2019-05-02T00:02:23.998Z,48.73
2019-05-02T00:05:11.836Z,51.67
2019-05-02T00:07:58.660Z,51.50
2019-05-02T00:10:47.987Z,51.07
2019-05-02T00:13:34.362Z,51.47
2019-05-02T00:16:20.439Z,53.00
2019-05-02T00:19:09.215Z,50.00
2019-05-02T00:21:54.643Z,51.13
2019-05-02T00:24:41.106Z,50.67
2019-05-02T00:27:27.161Z,50.90
2019-05-02T00:30:13.097Z,50.17
2019-05-02T00:32:59.640Z,49.90
2019-05-02T00:35:47.544Z,50.43
2019-05-02T00:38:38.563Z,50.97
2019-05-02T00:41:21.470Z,50.50
2019-05-02T00:44:10.959Z,49.93
2019-05-02T00:46:57.654Z,51.97
2019-05-02T00:49:45.619Z,52.60
2019-05-02T00:52:32.885Z,54.17
2019-05-02T00:55:28.892Z,52.27
2019-05-02T00:58:17.388Z,51.17
2019-05-02T01:01:37.761Z,53.37
2019-05-02T01:04:30.208Z,51.97
2019-05-02T01:07:20.363Z,52.80
2019-05-02T01:10:04.309Z,51.87
2019-05-02T01:12:50.259Z,53.20
2019-05-02T01:15:39.095Z,52.17
2019-05-02T01:18:25.342Z,54.73
2019-05-02T01:21:11.326Z,52.90
2019-05-02T01:23:58.926Z,53.90
2019-05-02T01:26:54.873Z,54.83
2019-05-02T01:29:49.167Z,53.33
2019-05-02T01:33:01.398Z,52.07
2019-05-02T01:35:50.926Z,52.73
2019-05-02T01:38:41.007Z,52.80
2019-05-02T01:41:29.118Z,52.50
2019-05-02T01:44:15.111Z,51.93
2019-05-02T01:47:01.017Z,53.33
2019-05-02T01:49:47.270Z,52.90
2019-05-02T01:52:33.634Z,53.13
2019-05-02T01:55:21.201Z,53.17
2019-05-02T01:58:07.472Z,52.83
2019-05-02T02:00:53.502Z,51.20
2019-05-02T02:03:43.522Z,50.73
2019-05-02T02:06:27.439Z,50.47
2019-05-02T02:09:14.110Z,52.10
2019-05-02T02:12:05.039Z,51.00
2019-05-02T02:14:53.551Z,51.03
2019-05-02T02:17:38.598Z,49.53
2019-05-02T02:20:26.495Z,51.40
2019-05-02T02:23:31.576Z,50.90
2019-05-02T02:26:18.566Z,50.13
2019-05-02T02:29:07.906Z,49.30
2019-05-02T02:31:53.111Z,50.20
2019-05-02T02:34:51.295Z,48.67
2019-05-02T02:37:37.290Z,48.93
2019-05-02T02:40:32.920Z,48.80
2019-05-02T02:43:32.349Z,49.00
2019-05-02T02:46:13.726Z,50.47
2019-05-02T02:49:03.108Z,48.23
2019-05-02T02:51:49.119Z,48.37
2019-05-02T02:54:36.503Z,47.03
2019-05-02T02:57:29.582Z,47.20
2019-05-02T03:00:15.900Z,47.73
2019-05-02T03:03:02.344Z,45.40
2019-05-02T03:05:48.861Z,47.27
2019-05-02T03:08:44.566Z,47.47
2019-05-02T03:11:25.571Z,46.43
2019-05-02T03:14:26.074Z,46.87
2019-05-02T03:17:12.337Z,45.57
2019-05-02T03:20:03.736Z,45.60
2019-05-02T03:22:51.948Z,46.13
2019-05-02T03:25:49.795Z,47.67
2019-05-02T03:28:26.596Z,44.70
2019-05-02T03:31:23.842Z,45.10
2019-05-02T03:34:01.647Z,44.63
2019-05-02T03:36:47.867Z,46.17
2019-05-02T03:39:35.529Z,44.30
2019-05-02T03:42:24.932Z,46.10
2019-05-02T03:45:11.385Z,44.97
2019-05-02T03:47:57.495Z,43.27
2019-05-02T03:50:43.640Z,44.07
2019-05-02T03:53:30.978Z,44.40
2019-05-02T03:56:17.305Z,44.40
2019-05-02T03:59:03.570Z,44.77
2019-05-02T04:01:49.758Z,44.53
2019-05-02T04:04:36.124Z,44.47
2019-05-02T04:07:22.437Z,43.63
2019-05-02T04:10:13.515Z,43.70
2019-05-02T04:12:58.345Z,44.37
2019-05-02T04:15:44.556Z,41.93
2019-05-02T04:18:30.846Z,44.13
2019-05-02T04:21:24.491Z,45.07
2019-05-02T04:24:13.248Z,44.03
2019-05-02T04:26:56.391Z,45.50
2019-05-02T04:29:42.008Z,49.40
2019-05-02T04:32:28.347Z,44.97
2019-05-02T04:35:14.439Z,42.37
2019-05-02T04:38:02.741Z,43.13
2019-05-02T04:40:49.598Z,42.77
2019-05-02T04:43:40.593Z,43.77
2019-05-02T04:46:28.096Z,42.63
2019-05-02T04:49:11.668Z,44.00
2019-05-02T04:52:06.056Z,40.30
2019-05-02T04:54:45.562Z,49.47
2019-05-02T04:57:37.010Z,42.03
2019-05-02T05:00:20.013Z,41.90
2019-05-02T05:03:07.214Z,52.23
2019-05-02T05:05:59.373Z,39.93
2019-05-02T05:08:41.984Z,40.43
2019-05-02T05:11:28.147Z,42.80
2019-05-02T05:14:14.507Z,41.83
2019-05-02T05:17:00.779Z,39.27
2019-05-02T05:19:48.761Z,43.13
2019-05-02T05:22:38.437Z,41.00
2019-05-02T05:25:29.931Z,45.23
2019-05-02T05:28:19.829Z,46.23
2019-05-02T05:31:03.876Z,44.57
2019-05-02T05:33:50.154Z,49.63
2019-05-02T05:36:48.263Z,52.97
2019-05-02T05:39:38.102Z,57.20
2019-05-02T05:42:23.173Z,58.90
2019-05-02T05:45:13.821Z,63.57
2019-05-02T05:48:01.945Z,59.37
2019-05-02T05:50:48.064Z,56.37
2019-05-02T05:53:33.923Z,58.23
2019-05-02T05:56:19.981Z,51.43
2019-05-02T05:59:07.847Z,47.20
2019-05-02T06:01:54.148Z,45.33
2019-05-02T06:04:40.603Z,44.20
2019-05-02T06:07:27.810Z,43.00
2019-05-02T06:10:13.904Z,43.60
2019-05-02T06:12:59.921Z,43.13
2019-05-02T06:15:47.087Z,42.63
2019-05-02T06:18:36.244Z,41.60
2019-05-02T06:21:20.975Z,40.63
2019-05-02T06:24:10.920Z,41.70
2019-05-02T06:26:57.401Z,41.87
2019-05-02T06:29:43.465Z,41.07
2019-05-02T06:32:29.445Z,39.00
2019-05-02T06:35:17.151Z,40.23
2019-05-02T06:38:03.419Z,39.30
2019-05-02T06:40:49.474Z,40.13
2019-05-02T06:43:35.470Z,43.77
2019-05-02T06:46:27.648Z,45.17
2019-05-02T06:49:09.900Z,42.13
2019-05-02T06:51:57.558Z,42.77
2019-05-02T06:54:43.984Z,42.97
2019-05-02T06:57:29.884Z,43.30
2019-05-02T07:00:16.179Z,41.20
2019-05-02T07:03:05.006Z,41.00
2019-05-02T07:05:51.117Z,40.57
2019-05-02T07:08:36.989Z,39.67
2019-05-02T07:11:23.120Z,40.70
2019-05-02T07:14:13.558Z,38.67
2019-05-02T07:17:26.505Z,40.03
2019-05-02T07:20:13.324Z,40.20
2019-05-02T07:22:59.765Z,38.37
2019-05-02T07:25:46.219Z,36.77
2019-05-02T07:28:32.200Z,35.97
2019-05-02T07:31:18.400Z,37.80
2019-05-02T07:34:07.951Z,37.77
2019-05-02T07:36:52.223Z,40.53
2019-05-02T07:39:40.927Z,41.00
2019-05-02T07:42:26.368Z,41.57
2019-05-02T07:45:12.554Z,44.33
2019-05-02T07:48:01.333Z,45.67
2019-05-02T07:50:48.117Z,46.43
2019-05-02T07:53:34.565Z,48.60
2019-05-02T07:56:20.641Z,52.97
2019-05-02T07:59:06.678Z,50.87
2019-05-02T08:01:52.929Z,50.90
2019-05-02T08:04:43.556Z,52.73
2019-05-02T08:07:34.045Z,49.83
2019-05-02T08:10:16.379Z,53.23
2019-05-02T08:13:03.232Z,51.67
2019-05-02T08:15:50.904Z,51.23
2019-05-02T08:18:37.686Z,51.20
2019-05-02T08:21:27.297Z,51.67
2019-05-02T08:24:11.821Z,52.43
2019-05-02T08:27:15.757Z,51.20
2019-05-02T08:30:04.346Z,50.27
2019-05-02T08:32:49.818Z,54.43
2019-05-02T08:35:35.945Z,55.30
2019-05-02T08:38:22.321Z,51.83
2019-05-02T08:41:08.279Z,51.10
2019-05-02T08:43:54.479Z,51.37
2019-05-02T08:46:40.679Z,50.53
2019-05-02T08:49:27.199Z,51.93
2019-05-02T08:52:13.676Z,51.53
2019-05-02T08:55:04.518Z,49.17
2019-05-02T08:57:47.662Z,47.67
2019-05-02T09:00:37.416Z,50.30
2019-05-02T09:03:21.544Z,48.70
2019-05-02T09:06:07.528Z,49.50
2019-05-02T09:08:54.185Z,49.20
2019-05-02T09:11:41.493Z,45.77
2019-05-02T09:14:27.483Z,45.77
2019-05-02T09:17:16.532Z,49.27
2019-05-02T09:20:05.450Z,48.13
2019-05-02T09:22:55.960Z,48.20
2019-05-02T09:25:40.265Z,49.07
2019-05-02T09:28:26.628Z,50.00
2019-05-02T09:31:14.918Z,49.73
2019-05-02T09:34:02.694Z,47.77
2019-05-02T09:36:49.820Z,50.20
2019-05-02T09:39:36.619Z,50.10
2019-05-02T09:42:23.712Z,48.37
2019-05-02T09:45:16.165Z,48.43
2019-05-02T09:48:07.172Z,53.37
2019-05-02T09:50:50.096Z,50.17
2019-05-02T09:53:36.209Z,48.77
2019-05-02T09:56:22.174Z,49.63
2019-05-02T09:59:24.424Z,48.93
2019-05-02T10:01:56.935Z,49.73
2019-05-02T10:04:44.137Z,47.93
2019-05-02T10:07:32.353Z,46.60
2019-05-02T10:10:17.924Z,47.70
2019-05-02T10:13:03.991Z,47.33
2019-05-02T10:15:50.013Z,47.03
2019-05-02T10:18:36.099Z,44.87
2019-05-02T10:21:22.882Z,42.27
2019-05-02T10:24:09.220Z,45.20
2019-05-02T10:27:04.180Z,44.07
2019-05-02T10:29:45.523Z,47.37
2019-05-02T10:32:32.427Z,43.17
2019-05-02T10:35:20.467Z,41.83
2019-05-02T10:38:09.551Z,42.30
2019-05-02T10:41:01.464Z,44.23
2019-05-02T10:43:46.969Z,43.70
2019-05-02T10:46:47.872Z,42.27
2019-05-02T10:49:42.593Z,40.80
2019-05-02T10:52:29.961Z,43.67
2019-05-02T10:55:16.706Z,45.43
2019-05-02T10:58:03.019Z,44.23
2019-05-02T11:00:49.218Z,44.67
2019-05-02T11:03:46.181Z,44.60
2019-05-02T11:06:27.861Z,41.30
2019-05-02T11:09:16.755Z,41.93
2019-05-02T11:12:03.065Z,41.30
2019-05-02T11:14:54.956Z,40.33
2019-05-02T11:17:42.328Z,42.30
2019-05-02T11:20:28.603Z,38.17
2019-05-02T11:23:16.879Z,40.03
2019-05-02T11:26:03.033Z,38.57
2019-05-02T11:28:49.123Z,38.47
2019-05-02T11:31:35.329Z,38.40
2019-05-02T11:34:22.114Z,37.53
2019-05-02T11:37:08.383Z,39.87
2019-05-02T11:39:59.977Z,41.50
2019-05-02T11:42:42.864Z,40.37
2019-05-02T11:45:29.165Z,36.07
2019-05-02T11:48:15.564Z,38.97
2019-05-02T11:51:02.739Z,40.03
2019-05-02T11:53:49.130Z,39.00
2019-05-02T11:56:35.421Z,36.43
2019-05-02T11:59:27.612Z,35.63
2019-05-02T12:02:28.373Z,35.87
2019-05-02T12:05:16.269Z,32.97
2019-05-02T12:08:08.304Z,35.20
2019-05-02T12:10:51.959Z,31.93
2019-05-02T12:13:37.798Z,32.80
2019-05-02T12:16:23.839Z,32.67
2019-05-02T12:19:14.368Z,33.27
2019-05-02T12:21:58.180Z,30.87
2019-05-02T12:24:45.485Z,28.10
2019-05-02T12:27:31.913Z,27.53
2019-05-02T12:30:17.990Z,27.10
2019-05-02T12:33:03.831Z,27.17
2019-05-02T12:35:49.762Z,26.77
2019-05-02T12:38:35.900Z,27.30
2019-05-02T12:41:25.054Z,27.00
2019-05-02T12:44:11.766Z,27.00
2019-05-02T12:46:58.282Z,26.47
2019-05-02T12:49:44.730Z,27.17
2019-05-02T12:52:32.077Z,25.10
2019-05-02T12:55:19.036Z,25.17
2019-05-02T12:58:05.073Z,25.53
2019-05-02T13:00:53.037Z,23.60
2019-05-02T13:04:02.774Z,26.03
2019-05-02T13:06:48.860Z,25.03
2019-05-02T13:09:35.736Z,23.90
2019-05-02T13:12:26.557Z,24.40
2019-05-02T13:15:12.871Z,23.43
2019-05-02T13:17:59.190Z,24.57
2019-05-02T13:20:45.474Z,24.60
2019-05-02T13:24:07.545Z,22.50
2019-05-02T13:26:59.309Z,24.00
2019-05-02T13:29:42.838Z,22.57
2019-05-02T13:32:39.930Z,22.80
2019-05-02T13:35:32.358Z,25.07
2019-05-02T13:38:22.361Z,23.83
2019-05-02T13:41:08.758Z,23.77
2019-05-02T13:43:54.966Z,23.63
2019-05-02T13:46:41.960Z,23.37
2019-05-02T13:49:27.957Z,20.93
2019-05-02T13:52:13.957Z,21.07
2019-05-02T13:55:01.823Z,20.90
2019-05-02T13:57:47.700Z,20.50
2019-05-02T14:00:46.025Z,19.83
2019-05-02T14:03:32.758Z,19.73
2019-05-02T14:06:29.709Z,19.40
2019-05-02T14:09:22.777Z,24.20
2019-05-02T14:12:16.389Z,32.87
2019-05-02T14:15:03.128Z,33.03
2019-05-02T14:17:49.520Z,36.17
2019-05-02T14:20:37.408Z,38.87
2019-05-02T14:23:23.657Z,41.83
2019-05-02T14:26:11.674Z,46.77
2019-05-02T14:28:57.860Z,46.83
2019-05-02T14:31:44.099Z,48.20
2019-05-02T14:34:57.840Z,49.17
2019-05-02T14:37:43.965Z,49.53
2019-05-02T14:40:33.029Z,50.60
2019-05-02T14:43:38.202Z,51.83
2019-05-02T14:46:34.305Z,52.43
2019-05-02T14:49:16.747Z,52.13
2019-05-02T14:52:07.061Z,52.10
2019-05-02T14:54:52.527Z,53.57
2019-05-02T14:57:39.663Z,51.53
2019-05-02T15:00:31.562Z,52.50
2019-05-02T15:03:19.055Z,51.73
2019-05-02T15:06:06.995Z,51.63
2019-05-02T15:08:52.911Z,55.87
2019-05-02T15:11:58.330Z,52.50
2019-05-02T15:14:44.265Z,52.20
2019-05-02T15:17:36.236Z,51.57
2019-05-02T15:20:18.427Z,53.63
2019-05-02T15:23:07.087Z,52.07
2019-05-02T15:25:56.091Z,57.13
2019-05-02T15:28:42.213Z,50.73
2019-05-02T15:31:32.384Z,53.00
2019-05-02T15:34:43.283Z,51.50
2019-05-02T15:37:26.639Z,49.33
2019-05-02T15:40:46.769Z,50.43
2019-05-02T15:43:09.729Z,46.20
2019-05-02T15:45:55.732Z,37.47
2019-05-02T15:48:42.279Z,34.63
2019-05-02T15:51:28.489Z,33.80
2019-05-02T15:54:18.793Z,37.83
2019-05-02T15:57:05.529Z,38.40
2019-05-02T15:59:51.631Z,41.00
2019-05-02T16:02:38.430Z,43.13
2019-05-02T16:05:24.596Z,41.80
2019-05-02T16:08:12.535Z,40.57
2019-05-02T16:10:58.517Z,38.23
2019-05-02T16:13:46.992Z,36.23
2019-05-02T16:16:36.587Z,36.37
2019-05-02T16:19:27.186Z,36.63
2019-05-02T16:22:16.483Z,33.70
2019-05-02T16:25:02.548Z,34.77
2019-05-02T16:27:49.359Z,35.07
2019-05-02T16:30:36.911Z,33.87
2019-05-02T16:33:23.465Z,35.53
2019-05-02T16:36:09.671Z,36.60
2019-05-02T16:38:55.812Z,34.20
2019-05-02T16:41:49.111Z,35.27
2019-05-02T16:44:32.927Z,32.57
2019-05-02T16:47:18.859Z,36.03
2019-05-02T16:50:05.609Z,35.57
2019-05-02T16:52:53.054Z,34.97
2019-05-02T16:55:39.263Z,34.63
2019-05-02T16:58:25.268Z,35.97
2019-05-02T17:01:12.256Z,35.23
2019-05-02T17:04:05.191Z,35.53
2019-05-02T17:06:47.457Z,36.53
2019-05-02T17:10:16.162Z,35.17
2019-05-02T17:13:00.297Z,32.27
2019-05-02T17:15:46.227Z,30.37
2019-05-02T17:18:32.722Z,41.50
2019-05-02T17:21:19.007Z,34.40
2019-05-02T17:24:05.129Z,28.90
2019-05-02T17:26:51.943Z,28.97
2019-05-02T17:29:38.129Z,28.33
2019-05-02T17:32:24.070Z,29.60
2019-05-02T17:35:12.321Z,31.20
2019-05-02T17:38:02.576Z,31.53
2019-05-02T17:40:51.650Z,77.13
2019-05-02T17:43:37.454Z,31.07
2019-05-02T17:46:25.950Z,31.97
2019-05-02T17:49:12.076Z,33.77
2019-05-02T17:52:26.706Z,33.80
2019-05-02T17:55:09.702Z,32.50
2019-05-02T17:57:56.003Z,32.30
2019-05-02T18:00:47.510Z,34.07
2019-05-02T18:03:35.455Z,34.77
2019-05-02T18:06:30.780Z,34.60
2019-05-02T18:09:08.786Z,35.80
2019-05-02T18:11:55.000Z,34.60
2019-05-02T18:14:42.150Z,34.67
2019-05-02T18:17:29.178Z,34.07
2019-05-02T18:20:15.501Z,34.87
2019-05-02T18:23:03.062Z,35.27
2019-05-02T18:25:49.704Z,35.43
2019-05-02T18:28:46.033Z,33.40
2019-05-02T18:31:23.883Z,37.20
2019-05-02T18:34:14.379Z,35.30
2019-05-02T18:37:02.985Z,37.70
2019-05-02T18:39:51.917Z,36.60
2019-05-02T18:42:34.307Z,36.53
2019-05-02T18:45:25.225Z,35.67
2019-05-02T18:48:12.701Z,36.40
2019-05-02T18:50:59.166Z,34.43
2019-05-02T18:53:45.686Z,36.77
2019-05-02T18:56:33.956Z,32.93
2019-05-02T18:59:21.677Z,33.97
2019-05-02T19:02:07.602Z,33.93
2019-05-02T19:04:53.582Z,31.73
2019-05-02T19:07:39.509Z,33.80
2019-05-02T19:10:25.527Z,33.50
2019-05-02T19:13:12.694Z,30.40
2019-05-02T19:15:59.003Z,29.97
2019-05-02T19:18:49.035Z,28.53
2019-05-02T19:21:36.773Z,29.43
2019-05-02T19:24:27.526Z,30.37
2019-05-02T19:27:13.700Z,30.07
2019-05-02T19:30:00.001Z,28.50
2019-05-02T19:32:46.051Z,28.87
2019-05-02T19:35:32.762Z,26.93
2019-05-02T19:38:24.695Z,28.00
2019-05-02T19:41:09.178Z,26.80
2019-05-02T19:43:54.779Z,26.90
2019-05-02T19:46:42.238Z,27.20
2019-05-02T19:49:28.303Z,27.17
2019-05-02T19:52:14.789Z,27.90
2019-05-02T19:55:01.105Z,27.90
2019-05-02T19:57:47.355Z,29.00
2019-05-02T20:00:36.638Z,27.23
2019-05-02T20:03:25.929Z,27.70
2019-05-02T20:06:09.727Z,27.67
2019-05-02T20:08:59.208Z,27.73
2019-05-02T20:11:43.478Z,26.73
2019-05-02T20:14:29.680Z,27.83
2019-05-02T20:17:20.005Z,27.47
2019-05-02T20:20:07.206Z,27.57
2019-05-02T20:22:53.468Z,27.43
2019-05-02T20:25:39.797Z,24.27
2019-05-02T20:28:25.684Z,24.57
2019-05-02T20:31:12.292Z,24.47
2019-05-02T20:33:58.408Z,22.20
2019-05-02T20:36:44.619Z,21.60
2019-05-02T20:39:31.794Z,17.43
2019-05-02T20:42:18.091Z,15.47
2019-05-02T20:45:04.503Z,13.53
2019-05-02T20:47:52.282Z,11.67
2019-05-02T20:50:38.519Z,11.73
2019-05-02T20:53:30.858Z,11.47
2019-05-02T20:56:13.546Z,9.90
2019-05-02T20:59:01.883Z,8.83
2019-05-02T21:01:48.042Z,8.77
2019-05-02T21:04:34.001Z,8.17
2019-05-02T21:07:52.522Z,8.17
2019-05-02T21:10:41.736Z,7.70
2019-05-02T21:13:28.219Z,7.63
2019-05-02T21:16:14.562Z,7.40
2019-05-02T21:19:02.232Z,7.33
2019-05-02T21:21:48.549Z,7.63
2019-05-02T21:24:34.790Z,8.17
2019-05-02T21:27:21.789Z,7.90
2019-05-02T21:30:07.905Z,8.40
2019-05-02T21:32:54.017Z,8.67
2019-05-02T21:35:42.335Z,8.07
2019-05-02T21:38:28.502Z,7.93
2019-05-02T21:41:14.938Z,7.73
2019-05-02T21:44:02.479Z,7.93
2019-05-02T21:46:48.738Z,8.27
2019-05-02T21:50:01.816Z,8.50
2019-05-02T21:53:19.323Z,8.80
2019-05-02T21:56:26.073Z,8.60
2019-05-02T21:59:12.989Z,8.33
2019-05-02T22:02:02.252Z,8.60
2019-05-02T22:04:47.834Z,8.97
2019-05-02T22:07:34.136Z,8.47
2019-05-02T22:10:20.258Z,8.30
2019-05-02T22:13:06.464Z,8.00
2019-05-02T22:15:52.931Z,8.40
2019-05-02T22:18:38.903Z,7.80
2019-05-02T22:21:24.998Z,8.37
2019-05-02T22:24:14.317Z,7.83
2019-05-02T22:27:01.771Z,7.70
2019-05-02T22:29:47.729Z,7.33
2019-05-02T22:35:21.704Z,7.57
2019-05-02T22:38:22.226Z,8.13
2019-05-02T22:41:08.594Z,7.53
2019-05-02T22:43:54.691Z,7.47
2019-05-02T22:46:43.157Z,7.47
2019-05-02T22:49:31.669Z,7.90
2019-05-02T22:52:17.274Z,7.80
2019-05-02T22:55:03.439Z,8.70
2019-05-02T22:57:51.676Z,8.23
2019-05-02T23:00:37.480Z,7.77
2019-05-02T23:03:24.155Z,7.40
2019-05-02T23:06:12.421Z,8.67
2019-05-02T23:08:58.799Z,8.30
2019-05-02T23:11:45.383Z,7.37
2019-05-02T23:14:32.522Z,9.20
2019-05-02T23:17:19.067Z,9.30
2019-05-02T23:20:05.050Z,8.47
2019-05-02T23:22:52.363Z,8.63
2019-05-02T23:25:54.905Z,9.57
2019-05-02T23:28:42.610Z,8.43
2019-05-02T23:31:28.952Z,9.43
2019-05-02T23:34:15.246Z,9.30
2019-05-02T23:37:02.652Z,9.70
2019-05-02T23:39:48.934Z,9.97
2019-05-02T23:42:34.990Z,9.60
2019-05-02T23:45:22.529Z,10.27
2019-05-02T23:48:09.103Z,10.60
2019-05-02T23:50:56.558Z,11.00
2019-05-02T23:53:42.787Z,11.77
2019-05-02T23:56:29.124Z,11.17
2019-05-02T23:59:15.525Z,10.63
